Time,TemperatureF,DewpointF,PressureIn,WindDirection,WindDirectionDegrees,WindSpeedMPH,WindSpeedGustMPH,Humidity,HourlyPrecipIn,Conditions,Clouds,dailyrainin,SolarRadiationWatts/m^2,SoftwareType,DateUTC
2013-01-16 00:10:00,28.3,11.0,30.38,West,267,2.0,2.0,49,0.00,,,0.00,0,weatherlink.com 1.10,2013-01-16 07:10:00,
2013-01-16 00:25:00,27.8,12.0,30.39,WNW,288,0.0,1.0,51,0.00,,,0.00,0,weatherlink.com 1.10,2013-01-16 07:25:00,
2013-01-16 00:40:00,26.8,12.0,30.38,WNW,288,0.0,1.0,53,0.00,,,0.00,0,weatherlink.com 1.10,2013-01-16 07:40:00,
2013-01-16 00:55:00,26.7,12.0,30.38,WNW,288,0.0,2.0,54,0.00,,,0.00,0,weatherlink.com 1.10,2013-01-16 07:55:00,
2013-01-16 01:10:00,26.6,12.0,30.38,WNW,288,0.0,2.0,54,0.00,,,0.00,0,weatherlink.com 1.10,2013-01-16 08:10:00,
2013-01-16 01:25:00,26.6,12.0,30.37,WNW,288,0.0,0.0,55,0.00,,,0.00,0,weatherlink.com 1.10,2013-01-16 08:25:00,
2013-01-16 01:40:00,26.9,13.0,30.36,WNW,288,0.0,1.0,55,0.00,,,0.00,0,weatherlink.com 1.10,2013-01-16 08:40:00,
2013-01-16 01:55:00,26.0,13.0,30.37,WNW,298,0.0,4.0,57,0.00,,,0.00,0,weatherlink.com 1.10,2013-01-16 08:55:00,
2013-01-16 02:10:00,25.8,13.0,30.37,WNW,298,0.0,1.0,58,0.00,,,0.00,0,weatherlink.com 1.10,2013-01-16 09:10:00,
2013-01-16 02:25:00,27.2,13.0,30.37,WNW,300,2.0,4.0,55,0.00,,,0.00,0,weatherlink.com 1.10,2013-01-16 09:25:00,
2013-01-16 02:40:00,27.6,13.0,30.37,NW,304,2.0,3.0,54,0.00,,,0.00,0,weatherlink.com 1.10,2013-01-16 09:40:00,
2013-01-16 02:55:00,26.8,13.0,30.37,NW,304,0.0,1.0,56,0.00,,,0.00,0,weatherlink.com 1.10,2013-01-16 09:55:00,
2013-01-16 03:10:00,27.1,14.0,30.37,NNW,328,0.0,4.0,57,0.00,,,0.00,0,weatherlink.com 1.10,2013-01-16 10:10:00,
2013-01-16 03:25:00,26.8,13.0,30.36,NNW,328,0.0,0.0,56,0.00,,,0.00,0,weatherlink.com 1.10,2013-01-16 10:25:00,
2013-01-16 03:40:00,25.3,13.0,30.35,NNW,328,0.0,0.0,59,0.00,,,0.00,0,weatherlink.com 1.10,2013-01-16 10:40:00,
2013-01-16 03:55:00,24.5,13.0,30.34,NNW,328,0.0,2.0,62,0.00,,,0.00,0,weatherlink.com 1.10,2013-01-16 10:55:00,
2013-01-16 04:10:00,24.4,13.0,30.34,NNW,328,0.0,1.0,63,0.00,,,0.00,0,weatherlink.com 1.10,2013-01-16 11:10:00,
2013-01-16 04:25:00,24.2,13.0,30.33,NNW,328,1.0,2.0,62,0.00,,,0.00,0,weatherlink.com 1.10,2013-01-16 11:25:00,
2013-01-16 04:40:00,24.1,13.0,30.33,NNW,328,0.0,2.0,62,0.00,,,0.00,0,weatherlink.com 1.10,2013-01-16 11:40:00,
2013-01-16 04:56:00,23.5,13.0,30.32,NNW,328,0.0,1.0,64,0.00,,,0.00,0,weatherlink.com 1.10,2013-01-16 11:56:00,
2013-01-16 05:10:00,22.8,13.0,30.33,NNW,328,0.0,1.0,65,0.00,,,0.00,0,weatherlink.com 1.10,2013-01-16 12:10:00,
2013-01-16 05:25:00,23.9,13.0,30.32,ENE,66,2.0,3.0,64,0.00,,,0.00,0,weatherlink.com 1.10,2013-01-16 12:25:00,
2013-01-16 05:40:00,24.1,13.0,30.33,ENE,74,0.0,0.0,63,0.00,,,0.00,0,weatherlink.com 1.10,2013-01-16 12:40:00,
2013-01-16 05:56:00,23.7,13.0,30.34,North,350,1.0,3.0,64,0.00,,,0.00,0,weatherlink.com 1.10,2013-01-16 12:56:00,
2013-01-16 06:11:00,22.6,13.0,30.34,North,350,1.0,1.0,66,0.00,,,0.00,0,weatherlink.com 1.10,2013-01-16 13:11:00,
2013-01-16 06:26:00,21.5,13.0,30.34,WNW,289,0.0,3.0,69,0.00,,,0.00,0,weatherlink.com 1.10,2013-01-16 13:26:00,
2013-01-16 06:41:00,22.4,13.0,30.34,WNW,289,0.0,1.0,68,0.00,,,0.00,0,weatherlink.com 1.10,2013-01-16 13:41:00,
2013-01-16 06:56:00,22.0,13.0,30.34,WNW,289,0.0,0.0,67,0.00,,,0.00,0,weatherlink.com 1.10,2013-01-16 13:56:00,
2013-01-16 07:11:00,21.3,13.0,30.35,NNW,331,0.0,2.0,69,0.00,,,0.00,0,weatherlink.com 1.10,2013-01-16 14:11:00,
2013-01-16 07:26:00,21.3,12.0,30.34,WNW,295,2.0,4.0,68,0.00,,,0.00,5,weatherlink.com 1.10,2013-01-16 14:26:00,
2013-01-16 07:41:00,22.5,14.0,30.35,NW,319,0.0,2.0,70,0.00,,,0.00,11,weatherlink.com 1.10,2013-01-16 14:41:00,
2013-01-16 07:56:00,22.9,14.0,30.35,NW,321,0.0,2.0,68,0.00,,,0.00,16,weatherlink.com 1.10,2013-01-16 14:56:00,
2013-01-16 08:12:00,24.2,14.0,30.35,NW,323,0.0,1.0,66,0.00,,,0.00,44,weatherlink.com 1.10,2013-01-16 15:12:00,
2013-01-16 08:26:00,25.9,15.0,30.36,NW,323,0.0,0.0,64,0.00,,,0.00,86,weatherlink.com 1.10,2013-01-16 15:26:00,
2013-01-16 08:41:00,28.4,16.0,30.36,NW,323,0.0,0.0,61,0.00,,,0.00,141,weatherlink.com 1.10,2013-01-16 15:41:00,
2013-01-16 08:56:00,31.3,17.0,30.36,NW,323,0.0,1.0,56,0.00,,,0.00,216,weatherlink.com 1.10,2013-01-16 15:56:00,
2013-01-16 09:11:00,34.6,18.0,30.36,NW,323,0.0,0.0,52,0.00,,,0.00,190,weatherlink.com 1.10,2013-01-16 16:11:00,
2013-01-16 09:26:00,36.5,19.0,30.36,NW,323,0.0,0.0,49,0.00,,,0.00,294,weatherlink.com 1.10,2013-01-16 16:26:00,
2013-01-16 09:41:00,38.5,19.0,30.36,NW,319,0.0,1.0,46,0.00,,,0.00,327,weatherlink.com 1.10,2013-01-16 16:41:00,
2013-01-16 09:56:00,40.7,19.0,30.35,SSW,213,0.0,4.0,42,0.00,,,0.00,359,weatherlink.com 1.10,2013-01-16 16:56:00,
2013-01-16 10:11:00,41.2,18.0,30.35,SSE,167,1.0,4.0,40,0.00,,,0.00,207,weatherlink.com 1.10,2013-01-16 17:11:00,
2013-01-16 10:26:00,41.0,18.0,30.34,South,184,1.0,3.0,40,0.00,,,0.00,243,weatherlink.com 1.10,2013-01-16 17:26:00,
2013-01-16 10:41:00,42.3,19.0,30.33,SSE,158,0.0,3.0,40,0.00,,,0.00,295,weatherlink.com 1.10,2013-01-16 17:41:00,
2013-01-16 10:56:00,44.2,19.0,30.33,South,180,1.0,3.0,37,0.00,,,0.00,461,weatherlink.com 1.10,2013-01-16 17:56:00,
2013-01-16 11:11:00,46.8,20.0,30.32,South,184,5.0,5.0,34,0.00,,,0.00,445,weatherlink.com 1.10,2013-01-16 18:11:00,
2013-01-16 11:26:00,47.6,20.0,30.31,South,173,3.0,7.0,33,0.00,,,0.00,469,weatherlink.com 1.10,2013-01-16 18:26:00,
2013-01-16 11:42:00,48.3,19.0,30.30,South,172,2.0,6.0,31,0.00,,,0.00,485,weatherlink.com 1.10,2013-01-16 18:42:00,
2013-01-16 11:57:00,49.6,18.0,30.30,South,173,7.0,7.0,29,0.00,,,0.00,494,weatherlink.com 1.10,2013-01-16 18:57:00,
2013-01-16 12:12:00,50.0,19.0,30.29,South,178,2.0,6.0,29,0.00,,,0.00,496,weatherlink.com 1.10,2013-01-16 19:12:00,
2013-01-16 12:27:00,50.9,19.0,30.28,SW,230,3.0,6.0,28,0.00,,,0.00,496,weatherlink.com 1.10,2013-01-16 19:27:00,
2013-01-16 12:42:00,51.2,18.0,30.27,SSE,150,4.0,8.0,27,0.00,,,0.00,482,weatherlink.com 1.10,2013-01-16 19:42:00,
2013-01-16 12:57:00,51.3,18.0,30.27,South,181,2.0,7.0,27,0.00,,,0.00,489,weatherlink.com 1.10,2013-01-16 19:57:00,
2013-01-16 13:12:00,51.6,18.0,30.27,SSW,198,4.0,7.0,27,0.00,,,0.00,482,weatherlink.com 1.10,2013-01-16 20:12:00,
2013-01-16 13:27:00,52.0,19.0,30.27,SSE,166,3.0,6.0,27,0.00,,,0.00,466,weatherlink.com 1.10,2013-01-16 20:27:00,
2013-01-16 13:42:00,52.4,18.0,30.27,SSW,192,3.0,7.0,26,0.00,,,0.00,450,weatherlink.com 1.10,2013-01-16 20:42:00,
2013-01-16 13:57:00,52.8,19.0,30.27,SW,232,2.0,5.0,26,0.00,,,0.00,429,weatherlink.com 1.10,2013-01-16 20:57:00,
2013-01-16 14:12:00,53.3,18.0,30.26,South,184,1.0,7.0,25,0.00,,,0.00,408,weatherlink.com 1.10,2013-01-16 21:12:00,
2013-01-16 14:27:00,52.8,19.0,30.26,SSW,192,0.0,5.0,26,0.00,,,0.00,380,weatherlink.com 1.10,2013-01-16 21:27:00,
2013-01-16 14:42:00,53.3,18.0,30.27,SSE,166,3.0,6.0,25,0.00,,,0.00,352,weatherlink.com 1.10,2013-01-16 21:42:00,
2013-01-16 14:57:00,53.7,18.0,30.27,SSE,163,0.0,5.0,25,0.00,,,0.00,322,weatherlink.com 1.10,2013-01-16 21:57:00,
2013-01-16 15:12:00,54.3,18.0,30.27,South,176,0.0,3.0,24,0.00,,,0.00,132,weatherlink.com 1.10,2013-01-16 22:12:00,
2013-01-16 15:27:00,52.7,18.0,30.27,South,184,0.0,4.0,26,0.00,,,0.00,174,weatherlink.com 1.10,2013-01-16 22:27:00,
2013-01-16 15:42:00,53.9,19.0,30.27,South,184,0.0,3.0,25,0.00,,,0.00,197,weatherlink.com 1.10,2013-01-16 22:42:00,
2013-01-16 15:57:00,53.2,19.0,30.28,South,174,0.0,3.0,26,0.00,,,0.00,144,weatherlink.com 1.10,2013-01-16 22:57:00,
2013-01-16 16:12:00,53.3,18.0,30.28,South,174,1.0,1.0,25,0.00,,,0.00,98,weatherlink.com 1.10,2013-01-16 23:12:00,
2013-01-16 16:27:00,52.0,19.0,30.28,South,180,1.0,3.0,27,0.00,,,0.00,56,weatherlink.com 1.10,2013-01-16 23:27:00,
2013-01-16 16:42:00,51.1,19.0,30.29,South,176,0.0,3.0,28,0.00,,,0.00,19,weatherlink.com 1.10,2013-01-16 23:42:00,
2013-01-16 16:57:00,48.6,19.0,30.29,ESE,105,2.0,5.0,31,0.00,,,0.00,5,weatherlink.com 1.10,2013-01-16 23:57:00,
2013-01-16 17:12:00,46.4,19.0,30.30,East,91,3.0,6.0,34,0.00,,,0.00,0,weatherlink.com 1.10,2013-01-17 00:12:00,
2013-01-16 17:27:00,45.2,20.0,30.31,SE,135,0.0,5.0,36,0.00,,,0.00,0,weatherlink.com 1.10,2013-01-17 00:27:00,
2013-01-16 17:42:00,44.5,20.0,30.32,SE,127,0.0,2.0,37,0.00,,,0.00,0,weatherlink.com 1.10,2013-01-17 00:42:00,
2013-01-16 17:57:00,43.4,19.0,30.33,SE,128,2.0,2.0,38,0.00,,,0.00,0,weatherlink.com 1.10,2013-01-17 00:57:00,
2013-01-16 18:12:00,41.2,20.0,30.34,SW,222,0.0,2.0,42,0.00,,,0.00,0,weatherlink.com 1.10,2013-01-17 01:12:00,
2013-01-16 18:27:00,40.5,19.0,30.34,SW,223,1.0,2.0,42,0.00,,,0.00,0,weatherlink.com 1.10,2013-01-17 01:27:00,
2013-01-16 18:42:00,38.0,18.0,30.34,SW,223,0.0,1.0,45,0.00,,,0.00,0,weatherlink.com 1.10,2013-01-17 01:42:00,
2013-01-16 18:57:00,35.7,18.0,30.36,SW,223,1.0,2.0,48,0.00,,,0.00,0,weatherlink.com 1.10,2013-01-17 01:57:00,
2013-01-16 19:12:00,34.1,18.0,30.36,SW,223,1.0,2.0,51,0.00,,,0.00,0,weatherlink.com 1.10,2013-01-17 02:12:00,
2013-01-16 19:27:00,33.9,19.0,30.37,ENE,57,1.0,4.0,54,0.00,,,0.00,0,weatherlink.com 1.10,2013-01-17 02:27:00,
2013-01-16 19:42:00,34.9,18.0,30.38,ESE,107,0.0,2.0,51,0.00,,,0.00,0,weatherlink.com 1.10,2013-01-17 02:42:00,
2013-01-16 19:57:00,35.5,19.0,30.38,SE,146,0.0,1.0,51,0.00,,,0.00,0,weatherlink.com 1.10,2013-01-17 02:57:00,
2013-01-16 20:12:00,34.8,19.0,30.39,SE,146,0.0,0.0,53,0.00,,,0.00,0,weatherlink.com 1.10,2013-01-17 03:12:00,
2013-01-16 20:27:00,34.6,19.0,30.39,SE,146,1.0,2.0,54,0.00,,,0.00,0,weatherlink.com 1.10,2013-01-17 03:27:00,
2013-01-16 20:42:00,35.1,20.0,30.39,SW,224,2.0,4.0,54,0.00,,,0.00,0,weatherlink.com 1.10,2013-01-17 03:42:00,
2013-01-16 20:57:00,35.2,19.0,30.39,SW,233,0.0,3.0,53,0.00,,,0.00,0,weatherlink.com 1.10,2013-01-17 03:57:00,
2013-01-16 21:12:00,32.8,18.0,30.39,SW,233,1.0,1.0,55,0.00,,,0.00,0,weatherlink.com 1.10,2013-01-17 04:12:00,
2013-01-16 21:27:00,30.4,18.0,30.39,SW,233,1.0,2.0,60,0.00,,,0.00,0,weatherlink.com 1.10,2013-01-17 04:27:00,
2013-01-16 21:42:00,30.0,18.0,30.39,NNW,333,1.0,3.0,62,0.00,,,0.00,0,weatherlink.com 1.10,2013-01-17 04:42:00,
2013-01-16 21:57:00,30.3,18.0,30.40,NNW,333,0.0,1.0,61,0.00,,,0.00,0,weatherlink.com 1.10,2013-01-17 04:57:00,
2013-01-16 22:12:00,30.0,18.0,30.40,NNW,333,0.0,2.0,61,0.00,,,0.00,0,weatherlink.com 1.10,2013-01-17 05:12:00,
2013-01-16 22:27:00,29.5,18.0,30.40,NNW,333,0.0,1.0,63,0.00,,,0.00,0,weatherlink.com 1.10,2013-01-17 05:27:00,
2013-01-16 22:42:00,28.7,18.0,30.40,NNW,333,0.0,1.0,64,0.00,,,0.00,0,weatherlink.com 1.10,2013-01-17 05:42:00,
2013-01-16 22:57:00,28.5,18.0,30.41,NNW,333,0.0,0.0,65,0.00,,,0.00,0,weatherlink.com 1.10,2013-01-17 05:57:00,
2013-01-16 23:12:00,28.4,18.0,30.41,NNW,333,1.0,2.0,66,0.00,,,0.00,0,weatherlink.com 1.10,2013-01-17 06:12:00,
2013-01-16 23:27:00,30.3,19.0,30.41,WSW,247,3.0,4.0,62,0.00,,,0.00,0,weatherlink.com 1.10,2013-01-17 06:27:00,
2013-01-16 23:42:00,32.1,18.0,30.41,WSW,248,2.0,4.0,57,0.00,,,0.00,0,weatherlink.com 1.10,2013-01-17 06:42:00,
2013-01-16 23:57:00,32.6,17.0,30.41,SW,220,0.0,3.0,54,0.00,,,0.00,0,weatherlink.com 1.10,2013-01-17 06:57:00,